sensor_id;sensor_type;location;lat;lon;timestamp;P1;durP1;ratioP1;P2;durP2;ratioP2
46713;SDS011;32445;51.376;10.874;2023-06-19T00:01:38;4.43;;;4.13;;
46713;SDS011;32445;51.376;10.874;2023-06-19T00:04:38;4.50;;;4.07;;
46713;SDS011;32445;51.376;10.874;2023-06-19T00:07:38;4.70;;;4.17;;
46713;SDS011;32445;51.376;10.874;2023-06-19T00:10:39;4.55;;;4.25;;
46713;SDS011;32445;51.376;10.874;2023-06-19T00:13:39;4.00;;;3.67;;
46713;SDS011;32445;51.376;10.874;2023-06-19T00:16:40;4.67;;;4.27;;
46713;SDS011;32445;51.376;10.874;2023-06-19T00:19:40;5.90;;;4.43;;
46713;SDS011;32445;51.376;10.874;2023-06-19T00:22:40;4.00;;;3.70;;
46713;SDS011;32445;51.376;10.874;2023-06-19T00:25:41;4.68;;;4.30;;
46713;SDS011;32445;51.376;10.874;2023-06-19T00:28:43;5.47;;;4.97;;
46713;SDS011;32445;51.376;10.874;2023-06-19T00:31:45;4.75;;;4.45;;
46713;SDS011;32445;51.376;10.874;2023-06-19T00:34:45;5.20;;;4.80;;
46713;SDS011;32445;51.376;10.874;2023-06-19T00:37:46;8.53;;;4.33;;
46713;SDS011;32445;51.376;10.874;2023-06-19T00:40:46;4.80;;;4.50;;
46713;SDS011;32445;51.376;10.874;2023-06-19T00:43:47;5.13;;;4.20;;
46713;SDS011;32445;51.376;10.874;2023-06-19T00:46:47;4.90;;;4.50;;
46713;SDS011;32445;51.376;10.874;2023-06-19T00:49:51;4.60;;;4.30;;
46713;SDS011;32445;51.376;10.874;2023-06-19T00:52:52;4.85;;;4.45;;
46713;SDS011;32445;51.376;10.874;2023-06-19T00:55:53;4.50;;;4.20;;
46713;SDS011;32445;51.376;10.874;2023-06-19T00:58:56;4.88;;;4.50;;
46713;SDS011;32445;51.376;10.874;2023-06-19T01:01:56;4.50;;;4.20;;
46713;SDS011;32445;51.376;10.874;2023-06-19T01:04:57;4.53;;;4.13;;
46713;SDS011;32445;51.376;10.874;2023-06-19T01:11:13;4.22;;;3.92;;
46713;SDS011;32445;51.376;10.874;2023-06-19T01:14:28;5.25;;;4.85;;
46713;SDS011;32445;51.376;10.874;2023-06-19T01:17:35;4.70;;;4.40;;
46713;SDS011;32445;51.376;10.874;2023-06-19T01:20:37;4.68;;;4.28;;
46713;SDS011;32445;51.376;10.874;2023-06-19T01:23:37;3.92;;;3.63;;
46713;SDS011;32445;51.376;10.874;2023-06-19T01:26:37;4.57;;;4.17;;
46713;SDS011;32445;51.376;10.874;2023-06-19T01:29:38;4.30;;;4.00;;
46713;SDS011;32445;51.376;10.874;2023-06-19T01:32:56;6.50;;;4.95;;
46713;SDS011;32445;51.376;10.874;2023-06-19T01:36:02;4.85;;;3.95;;
46713;SDS011;32445;51.376;10.874;2023-06-19T01:39:05;4.45;;;4.10;;
46713;SDS011;32445;51.376;10.874;2023-06-19T01:42:06;5.00;;;4.70;;
46713;SDS011;32445;51.376;10.874;2023-06-19T01:45:09;4.13;;;3.83;;
46713;SDS011;32445;51.376;10.874;2023-06-19T01:48:10;4.95;;;4.55;;
46713;SDS011;32445;51.376;10.874;2023-06-19T01:51:10;5.07;;;4.60;;
46713;SDS011;32445;51.376;10.874;2023-06-19T01:54:11;4.88;;;4.47;;
46713;SDS011;32445;51.376;10.874;2023-06-19T01:57:12;5.13;;;4.83;;
46713;SDS011;32445;51.376;10.874;2023-06-19T02:00:12;4.05;;;3.75;;
46713;SDS011;32445;51.376;10.874;2023-06-19T02:03:13;4.97;;;4.53;;
46713;SDS011;32445;51.376;10.874;2023-06-19T02:06:13;5.23;;;4.57;;
46713;SDS011;32445;51.376;10.874;2023-06-19T02:09:14;4.33;;;4.03;;
46713;SDS011;32445;51.376;10.874;2023-06-19T02:12:14;5.40;;;5.00;;
46713;SDS011;32445;51.376;10.874;2023-06-19T02:15:14;6.77;;;4.50;;
46713;SDS011;32445;51.376;10.874;2023-06-19T02:18:15;5.27;;;4.60;;
46713;SDS011;32445;51.376;10.874;2023-06-19T02:21:15;6.30;;;4.67;;
46713;SDS011;32445;51.376;10.874;2023-06-19T02:24:15;5.30;;;4.90;;
46713;SDS011;32445;51.376;10.874;2023-06-19T02:27:16;5.23;;;4.83;;
46713;SDS011;32445;51.376;10.874;2023-06-19T02:30:16;4.90;;;4.40;;
46713;SDS011;32445;51.376;10.874;2023-06-19T02:33:16;5.30;;;5.00;;
46713;SDS011;32445;51.376;10.874;2023-06-19T02:36:17;6.47;;;4.93;;
46713;SDS011;32445;51.376;10.874;2023-06-19T02:39:20;5.85;;;5.40;;
46713;SDS011;32445;51.376;10.874;2023-06-19T02:42:20;5.13;;;4.68;;
46713;SDS011;32445;51.376;10.874;2023-06-19T02:45:21;4.83;;;4.50;;
46713;SDS011;32445;51.376;10.874;2023-06-19T02:48:21;9.33;;;5.33;;
46713;SDS011;32445;51.376;10.874;2023-06-19T02:51:23;5.03;;;4.63;;
46713;SDS011;32445;51.376;10.874;2023-06-19T02:54:23;6.93;;;5.10;;
46713;SDS011;32445;51.376;10.874;2023-06-19T02:57:23;5.27;;;4.87;;
46713;SDS011;32445;51.376;10.874;2023-06-19T03:00:24;9.63;;;5.73;;
46713;SDS011;32445;51.376;10.874;2023-06-19T03:03:24;4.87;;;4.57;;
46713;SDS011;32445;51.376;10.874;2023-06-19T03:06:25;5.47;;;5.07;;
46713;SDS011;32445;51.376;10.874;2023-06-19T03:09:26;5.50;;;5.05;;
46713;SDS011;32445;51.376;10.874;2023-06-19T03:12:27;4.63;;;4.32;;
46713;SDS011;32445;51.376;10.874;2023-06-19T03:15:27;5.60;;;5.20;;
46713;SDS011;32445;51.376;10.874;2023-06-19T03:18:27;5.30;;;4.87;;
46713;SDS011;32445;51.376;10.874;2023-06-19T03:21:27;5.93;;;5.33;;
46713;SDS011;32445;51.376;10.874;2023-06-19T03:24:28;5.00;;;4.70;;
46713;SDS011;32445;51.376;10.874;2023-06-19T03:27:28;5.67;;;5.27;;
46713;SDS011;32445;51.376;10.874;2023-06-19T03:30:30;6.03;;;5.00;;
46713;SDS011;32445;51.376;10.874;2023-06-19T03:33:30;5.15;;;4.82;;
46713;SDS011;32445;51.376;10.874;2023-06-19T03:36:35;4.97;;;4.67;;
46713;SDS011;32445;51.376;10.874;2023-06-19T03:39:35;5.40;;;4.90;;
46713;SDS011;32445;51.376;10.874;2023-06-19T03:42:36;5.97;;;4.73;;
46713;SDS011;32445;51.376;10.874;2023-06-19T03:45:36;5.93;;;5.33;;
46713;SDS011;32445;51.376;10.874;2023-06-19T03:48:37;5.83;;;5.23;;
46713;SDS011;32445;51.376;10.874;2023-06-19T03:51:42;5.47;;;5.13;;
46713;SDS011;32445;51.376;10.874;2023-06-19T03:54:42;5.47;;;4.97;;
46713;SDS011;32445;51.376;10.874;2023-06-19T03:57:42;5.33;;;4.93;;
46713;SDS011;32445;51.376;10.874;2023-06-19T04:00:43;4.83;;;4.47;;
46713;SDS011;32445;51.376;10.874;2023-06-19T04:03:44;5.70;;;5.20;;
46713;SDS011;32445;51.376;10.874;2023-06-19T04:06:44;5.50;;;5.10;;
46713;SDS011;32445;51.376;10.874;2023-06-19T04:09:46;5.22;;;4.93;;
46713;SDS011;32445;51.376;10.874;2023-06-19T04:12:47;5.53;;;5.17;;
46713;SDS011;32445;51.376;10.874;2023-06-19T04:15:47;5.38;;;4.95;;
46713;SDS011;32445;51.376;10.874;2023-06-19T04:18:48;5.57;;;5.13;;
46713;SDS011;32445;51.376;10.874;2023-06-19T04:21:48;5.50;;;5.10;;
46713;SDS011;32445;51.376;10.874;2023-06-19T04:24:48;5.63;;;5.23;;
46713;SDS011;32445;51.376;10.874;2023-06-19T04:27:49;5.63;;;5.23;;
46713;SDS011;32445;51.376;10.874;2023-06-19T04:30:49;5.40;;;5.00;;
46713;SDS011;32445;51.376;10.874;2023-06-19T04:33:49;5.47;;;5.07;;
46713;SDS011;32445;51.376;10.874;2023-06-19T04:36:50;7.10;;;5.53;;
46713;SDS011;32445;51.376;10.874;2023-06-19T04:39:50;5.90;;;5.40;;
46713;SDS011;32445;51.376;10.874;2023-06-19T04:42:50;6.00;;;5.60;;
46713;SDS011;32445;51.376;10.874;2023-06-19T04:45:53;5.90;;;5.50;;
46713;SDS011;32445;51.376;10.874;2023-06-19T04:48:54;6.17;;;5.37;;
46713;SDS011;32445;51.376;10.874;2023-06-19T04:51:55;5.50;;;4.95;;
46713;SDS011;32445;51.376;10.874;2023-06-19T04:54:57;5.32;;;4.82;;
46713;SDS011;32445;51.376;10.874;2023-06-19T04:57:58;5.45;;;4.95;;
46713;SDS011;32445;51.376;10.874;2023-06-19T05:00:58;6.20;;;5.60;;
46713;SDS011;32445;51.376;10.874;2023-06-19T05:03:59;6.05;;;5.55;;
46713;SDS011;32445;51.376;10.874;2023-06-19T05:07:00;6.87;;;4.50;;
46713;SDS011;32445;51.376;10.874;2023-06-19T05:10:00;5.43;;;4.90;;
46713;SDS011;32445;51.376;10.874;2023-06-19T05:13:00;5.63;;;5.13;;
46713;SDS011;32445;51.376;10.874;2023-06-19T05:16:02;6.07;;;5.65;;
46713;SDS011;32445;51.376;10.874;2023-06-19T05:19:02;4.70;;;4.30;;
46713;SDS011;32445;51.376;10.874;2023-06-19T05:22:02;6.93;;;4.80;;
46713;SDS011;32445;51.376;10.874;2023-06-19T05:25:03;5.60;;;5.10;;
46713;SDS011;32445;51.376;10.874;2023-06-19T05:28:04;5.77;;;5.37;;
46713;SDS011;32445;51.376;10.874;2023-06-19T05:31:04;6.53;;;6.13;;
46713;SDS011;32445;51.376;10.874;2023-06-19T05:34:04;6.07;;;5.40;;
46713;SDS011;32445;51.376;10.874;2023-06-19T05:37:05;5.13;;;4.73;;
46713;SDS011;32445;51.376;10.874;2023-06-19T05:40:05;6.03;;;5.53;;
46713;SDS011;32445;51.376;10.874;2023-06-19T05:43:06;5.40;;;5.07;;
46713;SDS011;32445;51.376;10.874;2023-06-19T05:46:07;5.37;;;4.87;;
46713;SDS011;32445;51.376;10.874;2023-06-19T05:49:07;5.17;;;4.77;;
46713;SDS011;32445;51.376;10.874;2023-06-19T05:52:07;5.53;;;5.13;;
46713;SDS011;32445;51.376;10.874;2023-06-19T05:55:08;6.63;;;6.00;;
46713;SDS011;32445;51.376;10.874;2023-06-19T05:58:09;6.32;;;5.82;;
46713;SDS011;32445;51.376;10.874;2023-06-19T06:01:09;8.47;;;5.83;;
46713;SDS011;32445;51.376;10.874;2023-06-19T06:04:09;5.67;;;5.33;;
46713;SDS011;32445;51.376;10.874;2023-06-19T06:07:10;9.70;;;6.60;;
46713;SDS011;32445;51.376;10.874;2023-06-19T06:10:11;5.95;;;5.45;;
46713;SDS011;32445;51.376;10.874;2023-06-19T06:13:11;8.23;;;6.20;;
46713;SDS011;32445;51.376;10.874;2023-06-19T06:16:11;7.70;;;6.83;;
46713;SDS011;32445;51.376;10.874;2023-06-19T06:19:12;11.53;;;8.33;;
46713;SDS011;32445;51.376;10.874;2023-06-19T06:22:12;7.27;;;6.73;;
46713;SDS011;32445;51.376;10.874;2023-06-19T06:25:12;7.13;;;6.53;;
46713;SDS011;32445;51.376;10.874;2023-06-19T06:28:13;6.90;;;6.40;;
46713;SDS011;32445;51.376;10.874;2023-06-19T06:31:14;7.25;;;6.65;;
46713;SDS011;32445;51.376;10.874;2023-06-19T06:34:14;6.93;;;6.43;;
46713;SDS011;32445;51.376;10.874;2023-06-19T06:37:14;7.00;;;5.93;;
46713;SDS011;32445;51.376;10.874;2023-06-19T06:40:17;8.35;;;7.10;;
46713;SDS011;32445;51.376;10.874;2023-06-19T06:43:17;13.03;;;7.73;;
46713;SDS011;32445;51.376;10.874;2023-06-19T06:46:18;6.27;;;5.70;;
46713;SDS011;32445;51.376;10.874;2023-06-19T06:49:18;5.70;;;5.30;;
46713;SDS011;32445;51.376;10.874;2023-06-19T06:52:19;6.43;;;5.97;;
46713;SDS011;32445;51.376;10.874;2023-06-19T06:55:19;6.20;;;5.60;;
46713;SDS011;32445;51.376;10.874;2023-06-19T06:58:19;7.20;;;6.70;;
46713;SDS011;32445;51.376;10.874;2023-06-19T07:01:20;7.77;;;6.97;;
46713;SDS011;32445;51.376;10.874;2023-06-19T07:04:20;7.30;;;6.70;;
46713;SDS011;32445;51.376;10.874;2023-06-19T07:07:20;6.67;;;6.07;;
46713;SDS011;32445;51.376;10.874;2023-06-19T07:10:21;7.33;;;6.37;;
46713;SDS011;32445;51.376;10.874;2023-06-19T07:13:21;7.17;;;6.67;;
46713;SDS011;32445;51.376;10.874;2023-06-19T07:16:21;6.77;;;6.03;;
46713;SDS011;32445;51.376;10.874;2023-06-19T07:19:22;7.23;;;6.73;;
46713;SDS011;32445;51.376;10.874;2023-06-19T07:22:22;7.03;;;6.50;;
46713;SDS011;32445;51.376;10.874;2023-06-19T07:25:22;11.47;;;6.50;;
46713;SDS011;32445;51.376;10.874;2023-06-19T07:28:25;7.00;;;6.50;;
46713;SDS011;32445;51.376;10.874;2023-06-19T07:31:25;7.60;;;7.00;;
46713;SDS011;32445;51.376;10.874;2023-06-19T07:34:25;8.43;;;7.73;;
46713;SDS011;32445;51.376;10.874;2023-06-19T07:37:26;6.53;;;6.07;;
46713;SDS011;32445;51.376;10.874;2023-06-19T07:40:26;7.32;;;6.70;;
46713;SDS011;32445;51.376;10.874;2023-06-19T07:43:27;7.77;;;7.13;;
46713;SDS011;32445;51.376;10.874;2023-06-19T07:46:27;7.10;;;6.70;;
46713;SDS011;32445;51.376;10.874;2023-06-19T07:49:27;7.33;;;6.73;;
46713;SDS011;32445;51.376;10.874;2023-06-19T07:52:28;6.60;;;6.07;;
46713;SDS011;32445;51.376;10.874;2023-06-19T07:55:28;7.17;;;5.87;;
46713;SDS011;32445;51.376;10.874;2023-06-19T07:58:28;7.27;;;6.67;;
46713;SDS011;32445;51.376;10.874;2023-06-19T08:01:30;40.28;;;11.57;;
46713;SDS011;32445;51.376;10.874;2023-06-19T08:04:31;9.00;;;8.10;;
46713;SDS011;32445;51.376;10.874;2023-06-19T08:07:31;8.77;;;7.90;;
46713;SDS011;32445;51.376;10.874;2023-06-19T08:10:31;7.50;;;6.90;;
46713;SDS011;32445;51.376;10.874;2023-06-19T08:13:31;7.60;;;7.07;;
46713;SDS011;32445;51.376;10.874;2023-06-19T08:16:32;8.47;;;7.83;;
46713;SDS011;32445;51.376;10.874;2023-06-19T08:19:33;8.43;;;7.83;;
46713;SDS011;32445;51.376;10.874;2023-06-19T08:22:33;6.80;;;6.18;;
46713;SDS011;32445;51.376;10.874;2023-06-19T08:25:34;12.03;;;7.63;;
46713;SDS011;32445;51.376;10.874;2023-06-19T08:28:34;7.97;;;7.27;;
46713;SDS011;32445;51.376;10.874;2023-06-19T08:31:34;8.37;;;7.53;;
46713;SDS011;32445;51.376;10.874;2023-06-19T08:34:35;6.63;;;6.03;;
46713;SDS011;32445;51.376;10.874;2023-06-19T08:37:36;10.60;;;7.13;;
46713;SDS011;32445;51.376;10.874;2023-06-19T08:40:37;8.40;;;7.87;;
46713;SDS011;32445;51.376;10.874;2023-06-19T08:43:37;8.93;;;7.43;;
46713;SDS011;32445;51.376;10.874;2023-06-19T08:46:38;7.07;;;6.53;;
46713;SDS011;32445;51.376;10.874;2023-06-19T08:49:38;7.85;;;7.05;;
46713;SDS011;32445;51.376;10.874;2023-06-19T08:52:39;8.27;;;7.43;;
46713;SDS011;32445;51.376;10.874;2023-06-19T08:55:39;7.13;;;6.63;;
46713;SDS011;32445;51.376;10.874;2023-06-19T08:58:40;15.27;;;7.93;;
46713;SDS011;32445;51.376;10.874;2023-06-19T09:01:46;7.82;;;6.43;;
46713;SDS011;32445;51.376;10.874;2023-06-19T09:04:51;6.43;;;5.80;;
46713;SDS011;32445;51.376;10.874;2023-06-19T09:07:55;8.13;;;7.33;;
46713;SDS011;32445;51.376;10.874;2023-06-19T09:11:01;7.63;;;7.00;;
46713;SDS011;32445;51.376;10.874;2023-06-19T09:14:03;6.90;;;6.30;;
46713;SDS011;32445;51.376;10.874;2023-06-19T09:17:04;8.57;;;7.67;;
46713;SDS011;32445;51.376;10.874;2023-06-19T09:20:06;6.90;;;6.22;;
46713;SDS011;32445;51.376;10.874;2023-06-19T09:23:07;7.68;;;7.18;;
46713;SDS011;32445;51.376;10.874;2023-06-19T09:26:07;8.38;;;7.00;;
46713;SDS011;32445;51.376;10.874;2023-06-19T09:29:11;6.10;;;5.60;;
46713;SDS011;32445;51.376;10.874;2023-06-19T09:35:20;7.20;;;6.70;;
46713;SDS011;32445;51.376;10.874;2023-06-19T09:38:21;7.20;;;6.50;;
46713;SDS011;32445;51.376;10.874;2023-06-19T09:41:24;7.72;;;6.97;;
46713;SDS011;32445;51.376;10.874;2023-06-19T09:47:29;7.55;;;6.85;;
46713;SDS011;32445;51.376;10.874;2023-06-19T09:50:41;7.70;;;7.13;;
46713;SDS011;32445;51.376;10.874;2023-06-19T09:53:46;9.85;;;6.15;;
46713;SDS011;32445;51.376;10.874;2023-06-19T09:56:48;7.00;;;6.35;;
46713;SDS011;32445;51.376;10.874;2023-06-19T09:59:54;9.00;;;6.05;;
46713;SDS011;32445;51.376;10.874;2023-06-19T10:02:59;6.20;;;5.70;;
46713;SDS011;32445;51.376;10.874;2023-06-19T10:06:02;6.25;;;5.75;;
46713;SDS011;32445;51.376;10.874;2023-06-19T10:09:08;6.45;;;5.95;;
46713;SDS011;32445;51.376;10.874;2023-06-19T10:12:12;6.05;;;5.65;;
46713;SDS011;32445;51.376;10.874;2023-06-19T10:18:20;6.40;;;5.95;;
46713;SDS011;32445;51.376;10.874;2023-06-19T10:21:21;5.45;;;5.05;;
46713;SDS011;32445;51.376;10.874;2023-06-19T10:24:22;6.18;;;5.15;;
46713;SDS011;32445;51.376;10.874;2023-06-19T10:27:24;6.15;;;5.65;;
46713;SDS011;32445;51.376;10.874;2023-06-19T10:30:25;6.55;;;6.05;;
46713;SDS011;32445;51.376;10.874;2023-06-19T10:36:28;5.85;;;5.35;;
46713;SDS011;32445;51.376;10.874;2023-06-19T10:42:28;6.00;;;5.50;;
46713;SDS011;32445;51.376;10.874;2023-06-19T10:48:29;6.70;;;6.20;;
46713;SDS011;32445;51.376;10.874;2023-06-19T10:54:31;5.63;;;5.13;;
46713;SDS011;32445;51.376;10.874;2023-06-19T10:57:32;6.18;;;5.25;;
46713;SDS011;32445;51.376;10.874;2023-06-19T11:00:32;5.82;;;5.35;;
46713;SDS011;32445;51.376;10.874;2023-06-19T11:03:33;5.45;;;5.05;;
46713;SDS011;32445;51.376;10.874;2023-06-19T11:06:35;4.78;;;4.47;;
46713;SDS011;32445;51.376;10.874;2023-06-19T11:09:36;6.18;;;5.57;;
46713;SDS011;32445;51.376;10.874;2023-06-19T11:12:36;6.53;;;5.13;;
46713;SDS011;32445;51.376;10.874;2023-06-19T11:15:37;5.57;;;5.18;;
46713;SDS011;32445;51.376;10.874;2023-06-19T11:18:37;5.60;;;5.10;;
46713;SDS011;32445;51.376;10.874;2023-06-19T11:21:37;6.40;;;5.82;;
46713;SDS011;32445;51.376;10.874;2023-06-19T11:24:49;5.28;;;4.88;;
46713;SDS011;32445;51.376;10.874;2023-06-19T11:27:50;5.37;;;5.07;;
46713;SDS011;32445;51.376;10.874;2023-06-19T11:31:01;5.93;;;5.43;;
46713;SDS011;32445;51.376;10.874;2023-06-19T11:34:03;5.82;;;5.32;;
46713;SDS011;32445;51.376;10.874;2023-06-19T11:37:16;5.57;;;5.07;;
46713;SDS011;32445;51.376;10.874;2023-06-19T11:40:21;5.50;;;4.95;;
46713;SDS011;32445;51.376;10.874;2023-06-19T11:43:29;5.63;;;5.13;;
46713;SDS011;32445;51.376;10.874;2023-06-19T11:46:31;5.15;;;4.80;;
46713;SDS011;32445;51.376;10.874;2023-06-19T11:49:35;5.32;;;4.82;;
46713;SDS011;32445;51.376;10.874;2023-06-19T11:52:35;5.18;;;4.88;;
46713;SDS011;32445;51.376;10.874;2023-06-19T11:55:36;5.60;;;5.20;;
46713;SDS011;32445;51.376;10.874;2023-06-19T11:58:36;5.22;;;4.72;;
46713;SDS011;32445;51.376;10.874;2023-06-19T12:01:36;5.07;;;4.78;;
46713;SDS011;32445;51.376;10.874;2023-06-19T12:04:37;15.98;;;5.50;;
46713;SDS011;32445;51.376;10.874;2023-06-19T12:07:37;5.15;;;4.85;;
46713;SDS011;32445;51.376;10.874;2023-06-19T12:10:38;4.50;;;4.30;;
46713;SDS011;32445;51.376;10.874;2023-06-19T12:13:41;5.72;;;4.45;;
46713;SDS011;32445;51.376;10.874;2023-06-19T12:16:42;6.85;;;4.75;;
46713;SDS011;32445;51.376;10.874;2023-06-19T12:19:43;5.43;;;4.70;;
46713;SDS011;32445;51.376;10.874;2023-06-19T12:22:43;5.03;;;4.50;;
46713;SDS011;32445;51.376;10.874;2023-06-19T12:25:43;5.03;;;4.57;;
46713;SDS011;32445;51.376;10.874;2023-06-19T12:28:44;4.85;;;4.43;;
46713;SDS011;32445;51.376;10.874;2023-06-19T12:31:44;4.75;;;4.45;;
46713;SDS011;32445;51.376;10.874;2023-06-19T12:34:44;4.57;;;4.28;;
46713;SDS011;32445;51.376;10.874;2023-06-19T12:37:46;7.55;;;5.30;;
46713;SDS011;32445;51.376;10.874;2023-06-19T12:40:46;4.35;;;4.05;;
46713;SDS011;32445;51.376;10.874;2023-06-19T12:43:47;4.45;;;4.05;;
46713;SDS011;32445;51.376;10.874;2023-06-19T12:46:47;4.38;;;4.07;;
46713;SDS011;32445;51.376;10.874;2023-06-19T12:49:48;5.70;;;4.72;;
46713;SDS011;32445;51.376;10.874;2023-06-19T12:52:48;3.80;;;3.60;;
46713;SDS011;32445;51.376;10.874;2023-06-19T12:55:49;4.20;;;3.92;;
46713;SDS011;32445;51.376;10.874;2023-06-19T12:58:49;4.00;;;3.80;;
46713;SDS011;32445;51.376;10.874;2023-06-19T13:01:49;3.85;;;3.65;;
46713;SDS011;32445;51.376;10.874;2023-06-19T13:04:50;6.90;;;4.20;;
46713;SDS011;32445;51.376;10.874;2023-06-19T13:07:50;4.13;;;3.75;;
46713;SDS011;32445;51.376;10.874;2023-06-19T13:10:50;3.75;;;3.55;;
46713;SDS011;32445;51.376;10.874;2023-06-19T13:13:51;3.88;;;3.05;;
46713;SDS011;32445;51.376;10.874;2023-06-19T13:16:51;5.82;;;4.15;;
46713;SDS011;32445;51.376;10.874;2023-06-19T13:19:51;4.43;;;3.30;;
46713;SDS011;32445;51.376;10.874;2023-06-19T13:22:52;4.22;;;3.92;;
46713;SDS011;32445;51.376;10.874;2023-06-19T13:25:52;5.18;;;3.20;;
46713;SDS011;32445;51.376;10.874;2023-06-19T13:28:53;3.60;;;3.40;;
46713;SDS011;32445;51.376;10.874;2023-06-19T13:31:53;7.57;;;3.45;;
46713;SDS011;32445;51.376;10.874;2023-06-19T13:34:53;4.40;;;3.30;;
46713;SDS011;32445;51.376;10.874;2023-06-19T13:37:54;5.25;;;3.60;;
46713;SDS011;32445;51.376;10.874;2023-06-19T13:40:54;2.85;;;2.65;;
46713;SDS011;32445;51.376;10.874;2023-06-19T13:43:54;3.97;;;3.67;;
46713;SDS011;32445;51.376;10.874;2023-06-19T13:46:55;4.07;;;3.40;;
46713;SDS011;32445;51.376;10.874;2023-06-19T13:49:55;3.75;;;3.45;;
46713;SDS011;32445;51.376;10.874;2023-06-19T13:52:56;3.90;;;2.75;;
46713;SDS011;32445;51.376;10.874;2023-06-19T13:55:56;3.65;;;3.33;;
46713;SDS011;32445;51.376;10.874;2023-06-19T13:59:00;3.88;;;3.58;;
46713;SDS011;32445;51.376;10.874;2023-06-19T14:02:00;2.80;;;2.70;;
46713;SDS011;32445;51.376;10.874;2023-06-19T14:05:00;3.20;;;3.00;;
46713;SDS011;32445;51.376;10.874;2023-06-19T14:08:01;3.13;;;2.92;;
46713;SDS011;32445;51.376;10.874;2023-06-19T14:11:01;3.60;;;2.50;;
46713;SDS011;32445;51.376;10.874;2023-06-19T14:14:02;4.18;;;2.75;;
46713;SDS011;32445;51.376;10.874;2023-06-19T14:17:02;4.03;;;2.63;;
46713;SDS011;32445;51.376;10.874;2023-06-19T14:20:02;2.85;;;2.58;;
46713;SDS011;32445;51.376;10.874;2023-06-19T14:23:04;3.58;;;2.38;;
46713;SDS011;32445;51.376;10.874;2023-06-19T14:26:04;4.13;;;2.90;;
46713;SDS011;32445;51.376;10.874;2023-06-19T14:29:05;2.60;;;2.40;;
46713;SDS011;32445;51.376;10.874;2023-06-19T14:32:05;2.58;;;2.38;;
46713;SDS011;32445;51.376;10.874;2023-06-19T14:35:05;2.58;;;2.40;;
46713;SDS011;32445;51.376;10.874;2023-06-19T14:38:06;4.25;;;3.85;;
46713;SDS011;32445;51.376;10.874;2023-06-19T14:41:07;2.63;;;2.42;;
46713;SDS011;32445;51.376;10.874;2023-06-19T14:44:07;2.40;;;2.20;;
46713;SDS011;32445;51.376;10.874;2023-06-19T14:47:07;2.38;;;1.98;;
46713;SDS011;32445;51.376;10.874;2023-06-19T14:50:08;3.05;;;2.85;;
46713;SDS011;32445;51.376;10.874;2023-06-19T14:53:09;8.35;;;2.78;;
46713;SDS011;32445;51.376;10.874;2023-06-19T14:56:09;2.13;;;1.92;;
46713;SDS011;32445;51.376;10.874;2023-06-19T14:59:10;3.17;;;1.80;;
46713;SDS011;32445;51.376;10.874;2023-06-19T15:02:11;3.45;;;2.92;;
46713;SDS011;32445;51.376;10.874;2023-06-19T15:05:11;3.92;;;2.67;;
46713;SDS011;32445;51.376;10.874;2023-06-19T15:08:12;3.90;;;2.05;;
46713;SDS011;32445;51.376;10.874;2023-06-19T15:11:12;2.08;;;1.90;;
46713;SDS011;32445;51.376;10.874;2023-06-19T15:14:12;2.67;;;2.03;;
46713;SDS011;32445;51.376;10.874;2023-06-19T15:17:13;3.38;;;2.13;;
46713;SDS011;32445;51.376;10.874;2023-06-19T15:20:13;2.95;;;1.90;;
46713;SDS011;32445;51.376;10.874;2023-06-19T15:23:16;1.90;;;1.80;;
46713;SDS011;32445;51.376;10.874;2023-06-19T15:26:17;1.63;;;1.52;;
46713;SDS011;32445;51.376;10.874;2023-06-19T15:29:17;1.60;;;1.45;;
46713;SDS011;32445;51.376;10.874;2023-06-19T15:32:17;1.58;;;1.48;;
46713;SDS011;32445;51.376;10.874;2023-06-19T15:35:18;1.45;;;1.35;;
46713;SDS011;32445;51.376;10.874;2023-06-19T15:38:18;3.83;;;1.58;;
46713;SDS011;32445;51.376;10.874;2023-06-19T15:41:19;2.13;;;1.58;;
46713;SDS011;32445;51.376;10.874;2023-06-19T15:44:20;2.75;;;1.45;;
46713;SDS011;32445;51.376;10.874;2023-06-19T15:47:20;1.90;;;1.77;;
46713;SDS011;32445;51.376;10.874;2023-06-19T15:50:21;3.05;;;1.80;;
46713;SDS011;32445;51.376;10.874;2023-06-19T15:53:21;1.70;;;1.58;;
46713;SDS011;32445;51.376;10.874;2023-06-19T15:56:22;4.43;;;2.10;;
46713;SDS011;32445;51.376;10.874;2023-06-19T15:59:22;2.10;;;1.70;;
46713;SDS011;32445;51.376;10.874;2023-06-19T16:02:23;4.68;;;1.80;;
46713;SDS011;32445;51.376;10.874;2023-06-19T16:05:23;2.72;;;2.53;;
46713;SDS011;32445;51.376;10.874;2023-06-19T16:08:25;2.17;;;1.98;;
46713;SDS011;32445;51.376;10.874;2023-06-19T16:11:26;6.65;;;2.65;;
46713;SDS011;32445;51.376;10.874;2023-06-19T16:14:27;2.30;;;2.03;;
46713;SDS011;32445;51.376;10.874;2023-06-19T16:17:27;2.35;;;2.15;;
46713;SDS011;32445;51.376;10.874;2023-06-19T16:20:27;2.83;;;2.25;;
46713;SDS011;32445;51.376;10.874;2023-06-19T16:23:28;3.58;;;2.60;;
46713;SDS011;32445;51.376;10.874;2023-06-19T16:26:28;2.45;;;2.30;;
46713;SDS011;32445;51.376;10.874;2023-06-19T16:29:28;2.50;;;2.30;;
46713;SDS011;32445;51.376;10.874;2023-06-19T16:32:29;2.97;;;2.72;;
46713;SDS011;32445;51.376;10.874;2023-06-19T16:35:29;3.35;;;2.85;;
46713;SDS011;32445;51.376;10.874;2023-06-19T16:38:29;2.40;;;2.30;;
46713;SDS011;32445;51.376;10.874;2023-06-19T16:41:30;2.85;;;2.65;;
46713;SDS011;32445;51.376;10.874;2023-06-19T16:44:30;3.03;;;2.60;;
46713;SDS011;32445;51.376;10.874;2023-06-19T16:47:31;3.90;;;2.55;;
46713;SDS011;32445;51.376;10.874;2023-06-19T16:50:31;3.65;;;3.13;;
46713;SDS011;32445;51.376;10.874;2023-06-19T16:53:31;2.90;;;2.70;;
46713;SDS011;32445;51.376;10.874;2023-06-19T16:56:32;3.00;;;2.80;;
46713;SDS011;32445;51.376;10.874;2023-06-19T16:59:32;3.33;;;3.03;;
46713;SDS011;32445;51.376;10.874;2023-06-19T17:02:32;6.55;;;3.45;;
46713;SDS011;32445;51.376;10.874;2023-06-19T17:05:33;4.28;;;3.97;;
46713;SDS011;32445;51.376;10.874;2023-06-19T17:08:33;3.38;;;3.17;;
46713;SDS011;32445;51.376;10.874;2023-06-19T17:11:33;3.38;;;3.03;;
46713;SDS011;32445;51.376;10.874;2023-06-19T17:14:34;5.53;;;3.40;;
46713;SDS011;32445;51.376;10.874;2023-06-19T17:17:34;3.50;;;3.30;;
46713;SDS011;32445;51.376;10.874;2023-06-19T17:20:34;4.78;;;4.15;;
46713;SDS011;32445;51.376;10.874;2023-06-19T17:23:35;3.22;;;3.03;;
46713;SDS011;32445;51.376;10.874;2023-06-19T17:26:35;2.83;;;2.63;;
46713;SDS011;32445;51.376;10.874;2023-06-19T17:29:36;3.75;;;3.33;;
46713;SDS011;32445;51.376;10.874;2023-06-19T17:32:36;3.70;;;3.50;;
46713;SDS011;32445;51.376;10.874;2023-06-19T17:35:38;7.50;;;3.40;;
46713;SDS011;32445;51.376;10.874;2023-06-19T17:38:38;5.70;;;3.25;;
46713;SDS011;32445;51.376;10.874;2023-06-19T17:41:38;4.78;;;4.00;;
46713;SDS011;32445;51.376;10.874;2023-06-19T17:44:39;4.25;;;3.95;;
46713;SDS011;32445;51.376;10.874;2023-06-19T17:47:39;4.45;;;4.18;;
46713;SDS011;32445;51.376;10.874;2023-06-19T17:50:40;4.45;;;4.15;;
46713;SDS011;32445;51.376;10.874;2023-06-19T17:53:40;4.47;;;4.13;;
46713;SDS011;32445;51.376;10.874;2023-06-19T17:56:41;4.30;;;3.92;;
46713;SDS011;32445;51.376;10.874;2023-06-19T17:59:41;4.80;;;4.40;;
46713;SDS011;32445;51.376;10.874;2023-06-19T18:02:41;4.00;;;3.80;;
46713;SDS011;32445;51.376;10.874;2023-06-19T18:05:42;4.88;;;4.28;;
46713;SDS011;32445;51.376;10.874;2023-06-19T18:08:42;4.47;;;4.05;;
46713;SDS011;32445;51.376;10.874;2023-06-19T18:11:42;5.53;;;4.22;;
46713;SDS011;32445;51.376;10.874;2023-06-19T18:14:43;4.72;;;4.32;;
46713;SDS011;32445;51.376;10.874;2023-06-19T18:17:44;4.97;;;4.68;;